sensor_id;sensor_type;location;lat;lon;timestamp;P1;durP1;ratioP1;P2;durP2;ratioP2
14817;SDS011;7500;57.698;11.986;2023-10-13T00:00:21;12.37;;;2.40;;
14817;SDS011;7500;57.698;11.986;2023-10-13T00:02:55;14.33;;;3.00;;
14817;SDS011;7500;57.698;11.986;2023-10-13T00:05:25;11.93;;;2.43;;
14817;SDS011;7500;57.698;11.986;2023-10-13T00:07:52;10.77;;;2.43;;
14817;SDS011;7500;57.698;11.986;2023-10-13T00:10:20;17.57;;;2.90;;
14817;SDS011;7500;57.698;11.986;2023-10-13T00:12:46;19.47;;;2.67;;
14817;SDS011;7500;57.698;11.986;2023-10-13T00:15:15;13.60;;;2.80;;
14817;SDS011;7500;57.698;11.986;2023-10-13T00:17:46;12.77;;;2.77;;
14817;SDS011;7500;57.698;11.986;2023-10-13T00:20:12;8.03;;;2.57;;
14817;SDS011;7500;57.698;11.986;2023-10-13T00:22:53;13.50;;;3.07;;
14817;SDS011;7500;57.698;11.986;2023-10-13T00:25:23;13.87;;;2.60;;
14817;SDS011;7500;57.698;11.986;2023-10-13T00:27:52;14.87;;;2.93;;
14817;SDS011;7500;57.698;11.986;2023-10-13T00:30:20;11.07;;;2.50;;
14817;SDS011;7500;57.698;11.986;2023-10-13T00:32:58;15.97;;;3.33;;
14817;SDS011;7500;57.698;11.986;2023-10-13T00:35:25;17.07;;;3.03;;
14817;SDS011;7500;57.698;11.986;2023-10-13T00:37:53;15.43;;;3.13;;
14817;SDS011;7500;57.698;11.986;2023-10-13T00:40:22;15.53;;;2.70;;
14817;SDS011;7500;57.698;11.986;2023-10-13T00:43:07;14.37;;;2.93;;
14817;SDS011;7500;57.698;11.986;2023-10-13T00:45:48;15.00;;;3.00;;
14817;SDS011;7500;57.698;11.986;2023-10-13T00:48:20;11.30;;;2.60;;
14817;SDS011;7500;57.698;11.986;2023-10-13T00:50:49;11.60;;;2.30;;
14817;SDS011;7500;57.698;11.986;2023-10-13T00:53:16;11.67;;;3.33;;
14817;SDS011;7500;57.698;11.986;2023-10-13T00:55:42;15.50;;;3.27;;
14817;SDS011;7500;57.698;11.986;2023-10-13T00:58:10;10.30;;;2.77;;
14817;SDS011;7500;57.698;11.986;2023-10-13T01:00:37;13.63;;;3.13;;
14817;SDS011;7500;57.698;11.986;2023-10-13T01:03:12;14.53;;;2.90;;
14817;SDS011;7500;57.698;11.986;2023-10-13T01:05:38;15.67;;;3.10;;
14817;SDS011;7500;57.698;11.986;2023-10-13T01:08:05;11.73;;;3.00;;
14817;SDS011;7500;57.698;11.986;2023-10-13T01:10:35;15.90;;;3.10;;
14817;SDS011;7500;57.698;11.986;2023-10-13T01:13:06;13.60;;;2.63;;
14817;SDS011;7500;57.698;11.986;2023-10-13T01:15:33;10.23;;;2.30;;
14817;SDS011;7500;57.698;11.986;2023-10-13T01:18:06;12.00;;;2.73;;
14817;SDS011;7500;57.698;11.986;2023-10-13T01:20:36;17.10;;;2.97;;
14817;SDS011;7500;57.698;11.986;2023-10-13T01:23:10;14.30;;;2.60;;
14817;SDS011;7500;57.698;11.986;2023-10-13T01:25:43;10.53;;;2.53;;
14817;SDS011;7500;57.698;11.986;2023-10-13T01:28:10;8.47;;;2.43;;
14817;SDS011;7500;57.698;11.986;2023-10-13T01:30:40;13.10;;;3.20;;
14817;SDS011;7500;57.698;11.986;2023-10-13T01:33:07;16.50;;;3.20;;
14817;SDS011;7500;57.698;11.986;2023-10-13T01:35:34;14.07;;;3.07;;
14817;SDS011;7500;57.698;11.986;2023-10-13T01:38:07;12.30;;;3.10;;
14817;SDS011;7500;57.698;11.986;2023-10-13T01:40:34;16.43;;;2.70;;
14817;SDS011;7500;57.698;11.986;2023-10-13T01:43:00;12.33;;;2.70;;
14817;SDS011;7500;57.698;11.986;2023-10-13T01:45:26;14.47;;;2.70;;
14817;SDS011;7500;57.698;11.986;2023-10-13T01:47:55;19.17;;;3.50;;
14817;SDS011;7500;57.698;11.986;2023-10-13T01:50:20;14.87;;;2.90;;
14817;SDS011;7500;57.698;11.986;2023-10-13T01:52:53;16.13;;;2.63;;
14817;SDS011;7500;57.698;11.986;2023-10-13T01:55:25;13.60;;;2.87;;
14817;SDS011;7500;57.698;11.986;2023-10-13T01:57:55;13.10;;;2.93;;
14817;SDS011;7500;57.698;11.986;2023-10-13T02:00:20;15.47;;;3.23;;
14817;SDS011;7500;57.698;11.986;2023-10-13T02:02:47;11.27;;;2.70;;
14817;SDS011;7500;57.698;11.986;2023-10-13T02:05:16;15.60;;;2.90;;
14817;SDS011;7500;57.698;11.986;2023-10-13T02:07:42;10.47;;;2.47;;
14817;SDS011;7500;57.698;11.986;2023-10-13T02:10:11;13.17;;;2.70;;
14817;SDS011;7500;57.698;11.986;2023-10-13T02:12:37;14.80;;;3.00;;
14817;SDS011;7500;57.698;11.986;2023-10-13T02:15:10;9.83;;;3.00;;
14817;SDS011;7500;57.698;11.986;2023-10-13T02:17:48;13.47;;;2.63;;
14817;SDS011;7500;57.698;11.986;2023-10-13T02:20:17;13.70;;;3.17;;
14817;SDS011;7500;57.698;11.986;2023-10-13T02:22:43;12.77;;;2.43;;
14817;SDS011;7500;57.698;11.986;2023-10-13T02:25:14;9.60;;;2.57;;
14817;SDS011;7500;57.698;11.986;2023-10-13T02:27:43;10.60;;;2.80;;
14817;SDS011;7500;57.698;11.986;2023-10-13T02:30:15;9.57;;;2.73;;
14817;SDS011;7500;57.698;11.986;2023-10-13T02:32:48;9.57;;;2.40;;
14817;SDS011;7500;57.698;11.986;2023-10-13T02:35:14;15.50;;;3.00;;
14817;SDS011;7500;57.698;11.986;2023-10-13T02:37:42;11.77;;;2.93;;
14817;SDS011;7500;57.698;11.986;2023-10-13T02:40:09;10.00;;;2.87;;
14817;SDS011;7500;57.698;11.986;2023-10-13T02:42:36;9.63;;;2.70;;
14817;SDS011;7500;57.698;11.986;2023-10-13T02:45:02;8.73;;;2.23;;
14817;SDS011;7500;57.698;11.986;2023-10-13T02:47:30;9.90;;;2.90;;
14817;SDS011;7500;57.698;11.986;2023-10-13T02:49:57;13.57;;;2.40;;
14817;SDS011;7500;57.698;11.986;2023-10-13T02:52:26;10.27;;;2.50;;
14817;SDS011;7500;57.698;11.986;2023-10-13T02:54:52;9.20;;;2.60;;
14817;SDS011;7500;57.698;11.986;2023-10-13T02:57:18;8.13;;;1.93;;
14817;SDS011;7500;57.698;11.986;2023-10-13T02:59:45;9.53;;;2.43;;
14817;SDS011;7500;57.698;11.986;2023-10-13T03:02:11;14.83;;;2.40;;
14817;SDS011;7500;57.698;11.986;2023-10-13T03:04:50;8.10;;;1.97;;
14817;SDS011;7500;57.698;11.986;2023-10-13T03:07:16;7.70;;;1.93;;
14817;SDS011;7500;57.698;11.986;2023-10-13T03:09:48;9.40;;;2.47;;
14817;SDS011;7500;57.698;11.986;2023-10-13T03:12:15;10.07;;;2.40;;
14817;SDS011;7500;57.698;11.986;2023-10-13T03:14:42;11.67;;;2.80;;
14817;SDS011;7500;57.698;11.986;2023-10-13T03:17:13;10.97;;;2.40;;
14817;SDS011;7500;57.698;11.986;2023-10-13T03:19:42;12.67;;;2.60;;
14817;SDS011;7500;57.698;11.986;2023-10-13T03:22:12;11.57;;;2.70;;
14817;SDS011;7500;57.698;11.986;2023-10-13T03:24:41;9.60;;;2.27;;
14817;SDS011;7500;57.698;11.986;2023-10-13T03:27:10;12.00;;;2.97;;
14817;SDS011;7500;57.698;11.986;2023-10-13T03:29:41;12.33;;;2.70;;
14817;SDS011;7500;57.698;11.986;2023-10-13T03:32:09;14.23;;;2.70;;
14817;SDS011;7500;57.698;11.986;2023-10-13T03:34:37;10.77;;;2.90;;
14817;SDS011;7500;57.698;11.986;2023-10-13T03:37:06;11.50;;;2.70;;
14817;SDS011;7500;57.698;11.986;2023-10-13T03:39:44;10.20;;;2.40;;
14817;SDS011;7500;57.698;11.986;2023-10-13T03:42:11;10.33;;;3.00;;
14817;SDS011;7500;57.698;11.986;2023-10-13T03:44:43;8.20;;;2.30;;
14817;SDS011;7500;57.698;11.986;2023-10-13T03:47:11;13.00;;;2.93;;
14817;SDS011;7500;57.698;11.986;2023-10-13T03:49:46;8.80;;;2.53;;
14817;SDS011;7500;57.698;11.986;2023-10-13T03:52:16;12.83;;;2.97;;
14817;SDS011;7500;57.698;11.986;2023-10-13T03:54:49;7.43;;;2.40;;
14817;SDS011;7500;57.698;11.986;2023-10-13T03:57:16;10.70;;;2.80;;
14817;SDS011;7500;57.698;11.986;2023-10-13T03:59:43;9.67;;;2.40;;
14817;SDS011;7500;57.698;11.986;2023-10-13T04:02:13;13.57;;;2.50;;
14817;SDS011;7500;57.698;11.986;2023-10-13T04:04:43;11.43;;;2.57;;
14817;SDS011;7500;57.698;11.986;2023-10-13T04:07:14;12.23;;;2.40;;
14817;SDS011;7500;57.698;11.986;2023-10-13T04:10:02;12.97;;;2.87;;
14817;SDS011;7500;57.698;11.986;2023-10-13T04:12:51;15.00;;;2.67;;
14817;SDS011;7500;57.698;11.986;2023-10-13T04:15:35;17.97;;;3.27;;
14817;SDS011;7500;57.698;11.986;2023-10-13T04:18:07;10.17;;;2.43;;
14817;SDS011;7500;57.698;11.986;2023-10-13T04:20:55;13.80;;;3.10;;
14817;SDS011;7500;57.698;11.986;2023-10-13T04:23:33;13.90;;;3.30;;
14817;SDS011;7500;57.698;11.986;2023-10-13T04:26:21;14.87;;;3.03;;
14817;SDS011;7500;57.698;11.986;2023-10-13T04:28:49;13.50;;;3.20;;
14817;SDS011;7500;57.698;11.986;2023-10-13T04:31:18;17.23;;;3.13;;
14817;SDS011;7500;57.698;11.986;2023-10-13T04:34:10;11.67;;;3.10;;
14817;SDS011;7500;57.698;11.986;2023-10-13T04:36:44;13.63;;;3.13;;
14817;SDS011;7500;57.698;11.986;2023-10-13T04:39:11;16.70;;;3.47;;
14817;SDS011;7500;57.698;11.986;2023-10-13T04:41:43;14.47;;;3.20;;
14817;SDS011;7500;57.698;11.986;2023-10-13T04:44:23;12.67;;;2.80;;
14817;SDS011;7500;57.698;11.986;2023-10-13T04:47:13;18.90;;;3.10;;
14817;SDS011;7500;57.698;11.986;2023-10-13T04:49:43;11.80;;;3.00;;
14817;SDS011;7500;57.698;11.986;2023-10-13T04:52:17;14.20;;;3.20;;
14817;SDS011;7500;57.698;11.986;2023-10-13T04:55:01;13.77;;;2.97;;
14817;SDS011;7500;57.698;11.986;2023-10-13T04:57:43;15.13;;;3.17;;
14817;SDS011;7500;57.698;11.986;2023-10-13T05:00:18;20.90;;;3.77;;
14817;SDS011;7500;57.698;11.986;2023-10-13T05:03:02;15.50;;;2.93;;
14817;SDS011;7500;57.698;11.986;2023-10-13T05:05:43;15.27;;;3.47;;
14817;SDS011;7500;57.698;11.986;2023-10-13T05:08:31;13.65;;;3.72;;
14817;SDS011;7500;57.698;11.986;2023-10-13T05:11:15;14.07;;;3.00;;
14817;SDS011;7500;57.698;11.986;2023-10-13T05:14:00;13.77;;;2.97;;
14817;SDS011;7500;57.698;11.986;2023-10-13T05:16:44;14.57;;;3.33;;
14817;SDS011;7500;57.698;11.986;2023-10-13T05:19:28;12.07;;;3.23;;
14817;SDS011;7500;57.698;11.986;2023-10-13T05:22:12;13.23;;;3.07;;
14817;SDS011;7500;57.698;11.986;2023-10-13T05:24:56;13.60;;;3.23;;
14817;SDS011;7500;57.698;11.986;2023-10-13T05:27:40;9.93;;;3.00;;
14817;SDS011;7500;57.698;11.986;2023-10-13T05:30:25;14.33;;;2.97;;
14817;SDS011;7500;57.698;11.986;2023-10-13T05:33:09;11.87;;;2.90;;
14817;SDS011;7500;57.698;11.986;2023-10-13T05:35:53;10.23;;;2.57;;
14817;SDS011;7500;57.698;11.986;2023-10-13T05:38:37;14.03;;;3.70;;
14817;SDS011;7500;57.698;11.986;2023-10-13T05:41:21;10.60;;;2.73;;
14817;SDS011;7500;57.698;11.986;2023-10-13T05:44:06;9.93;;;3.00;;
14817;SDS011;7500;57.698;11.986;2023-10-13T05:46:51;12.13;;;3.03;;
14817;SDS011;7500;57.698;11.986;2023-10-13T05:49:35;12.97;;;3.30;;
14817;SDS011;7500;57.698;11.986;2023-10-13T05:52:18;14.30;;;3.23;;
14817;SDS011;7500;57.698;11.986;2023-10-13T05:55:01;14.10;;;3.40;;
14817;SDS011;7500;57.698;11.986;2023-10-13T05:57:45;14.43;;;3.53;;
14817;SDS011;7500;57.698;11.986;2023-10-13T06:00:29;18.67;;;3.53;;
14817;SDS011;7500;57.698;11.986;2023-10-13T06:03:14;12.37;;;2.93;;
14817;SDS011;7500;57.698;11.986;2023-10-13T06:05:58;12.40;;;3.07;;
14817;SDS011;7500;57.698;11.986;2023-10-13T06:08:42;12.93;;;2.83;;
14817;SDS011;7500;57.698;11.986;2023-10-13T06:11:26;14.17;;;2.60;;
14817;SDS011;7500;57.698;11.986;2023-10-13T06:14:10;9.53;;;2.70;;
14817;SDS011;7500;57.698;11.986;2023-10-13T06:16:54;10.43;;;2.60;;
14817;SDS011;7500;57.698;11.986;2023-10-13T06:19:48;8.00;;;2.40;;
14817;SDS011;7500;57.698;11.986;2023-10-13T06:22:32;9.50;;;2.33;;
14817;SDS011;7500;57.698;11.986;2023-10-13T06:25:16;8.77;;;2.30;;
14817;SDS011;7500;57.698;11.986;2023-10-13T06:28:00;12.77;;;2.40;;
14817;SDS011;7500;57.698;11.986;2023-10-13T06:30:52;12.43;;;2.60;;
14817;SDS011;7500;57.698;11.986;2023-10-13T06:33:21;9.10;;;2.37;;
14817;SDS011;7500;57.698;11.986;2023-10-13T06:35:52;7.67;;;2.13;;
14817;SDS011;7500;57.698;11.986;2023-10-13T06:38:21;9.67;;;2.27;;
14817;SDS011;7500;57.698;11.986;2023-10-13T06:40:48;8.30;;;2.13;;
14817;SDS011;7500;57.698;11.986;2023-10-13T06:43:15;9.20;;;2.33;;
14817;SDS011;7500;57.698;11.986;2023-10-13T06:45:43;8.83;;;2.10;;
14817;SDS011;7500;57.698;11.986;2023-10-13T06:48:15;6.70;;;2.03;;
14817;SDS011;7500;57.698;11.986;2023-10-13T06:50:47;12.23;;;2.70;;
14817;SDS011;7500;57.698;11.986;2023-10-13T06:53:15;8.73;;;2.17;;
14817;SDS011;7500;57.698;11.986;2023-10-13T06:55:41;13.27;;;2.50;;
14817;SDS011;7500;57.698;11.986;2023-10-13T06:58:12;9.07;;;2.10;;
14817;SDS011;7500;57.698;11.986;2023-10-13T07:00:38;9.90;;;2.20;;
14817;SDS011;7500;57.698;11.986;2023-10-13T07:03:06;10.87;;;2.27;;
14817;SDS011;7500;57.698;11.986;2023-10-13T07:05:35;10.23;;;2.23;;
14817;SDS011;7500;57.698;11.986;2023-10-13T07:08:03;5.67;;;1.80;;
14817;SDS011;7500;57.698;11.986;2023-10-13T07:10:31;9.30;;;2.27;;
14817;SDS011;7500;57.698;11.986;2023-10-13T07:13:09;11.43;;;2.40;;
14817;SDS011;7500;57.698;11.986;2023-10-13T07:15:38;7.40;;;2.20;;
14817;SDS011;7500;57.698;11.986;2023-10-13T07:18:10;11.67;;;2.47;;
14817;SDS011;7500;57.698;11.986;2023-10-13T07:20:38;9.43;;;2.17;;
14817;SDS011;7500;57.698;11.986;2023-10-13T07:23:09;12.33;;;2.20;;
14817;SDS011;7500;57.698;11.986;2023-10-13T07:25:38;5.83;;;2.20;;
14817;SDS011;7500;57.698;11.986;2023-10-13T07:28:06;9.07;;;2.30;;
14817;SDS011;7500;57.698;11.986;2023-10-13T07:30:34;9.67;;;2.17;;
14817;SDS011;7500;57.698;11.986;2023-10-13T07:33:07;11.60;;;2.20;;
14817;SDS011;7500;57.698;11.986;2023-10-13T07:35:38;11.67;;;2.43;;
14817;SDS011;7500;57.698;11.986;2023-10-13T07:38:04;6.13;;;2.10;;
14817;SDS011;7500;57.698;11.986;2023-10-13T07:40:33;6.27;;;2.00;;
14817;SDS011;7500;57.698;11.986;2023-10-13T07:43:07;8.83;;;2.07;;
14817;SDS011;7500;57.698;11.986;2023-10-13T07:45:36;10.57;;;2.90;;
14817;SDS011;7500;57.698;11.986;2023-10-13T07:48:03;10.87;;;2.90;;
14817;SDS011;7500;57.698;11.986;2023-10-13T07:50:37;8.10;;;2.20;;
14817;SDS011;7500;57.698;11.986;2023-10-13T07:53:04;7.10;;;2.50;;
14817;SDS011;7500;57.698;11.986;2023-10-13T07:55:44;8.90;;;2.83;;
14817;SDS011;7500;57.698;11.986;2023-10-13T07:58:13;13.53;;;3.60;;
14817;SDS011;7500;57.698;11.986;2023-10-13T08:00:40;8.73;;;2.53;;
14817;SDS011;7500;57.698;11.986;2023-10-13T08:03:12;8.60;;;2.60;;
14817;SDS011;7500;57.698;11.986;2023-10-13T08:05:57;12.93;;;2.53;;
14817;SDS011;7500;57.698;11.986;2023-10-13T08:08:30;11.53;;;2.40;;
14817;SDS011;7500;57.698;11.986;2023-10-13T08:11:00;10.03;;;2.60;;
14817;SDS011;7500;57.698;11.986;2023-10-13T08:13:37;7.23;;;2.90;;
14817;SDS011;7500;57.698;11.986;2023-10-13T08:16:05;13.43;;;3.00;;
14817;SDS011;7500;57.698;11.986;2023-10-13T08:18:34;16.90;;;3.53;;
14817;SDS011;7500;57.698;11.986;2023-10-13T08:21:01;11.43;;;3.27;;
14817;SDS011;7500;57.698;11.986;2023-10-13T08:23:29;15.83;;;3.60;;
14817;SDS011;7500;57.698;11.986;2023-10-13T08:26:23;12.53;;;3.37;;
14817;SDS011;7500;57.698;11.986;2023-10-13T08:29:20;14.60;;;2.93;;
14817;SDS011;7500;57.698;11.986;2023-10-13T08:32:04;11.63;;;2.87;;
14817;SDS011;7500;57.698;11.986;2023-10-13T08:34:40;13.07;;;2.90;;
14817;SDS011;7500;57.698;11.986;2023-10-13T08:37:25;11.93;;;3.03;;
14817;SDS011;7500;57.698;11.986;2023-10-13T08:39:55;10.87;;;2.80;;
14817;SDS011;7500;57.698;11.986;2023-10-13T08:42:44;20.87;;;3.43;;
14817;SDS011;7500;57.698;11.986;2023-10-13T08:45:19;8.90;;;2.60;;
14817;SDS011;7500;57.698;11.986;2023-10-13T08:48:07;16.37;;;3.20;;
14817;SDS011;7500;57.698;11.986;2023-10-13T08:50:38;13.63;;;2.90;;
14817;SDS011;7500;57.698;11.986;2023-10-13T08:53:13;11.53;;;2.70;;
14817;SDS011;7500;57.698;11.986;2023-10-13T08:55:51;14.67;;;2.53;;
14817;SDS011;7500;57.698;11.986;2023-10-13T08:58:31;13.50;;;2.67;;
14817;SDS011;7500;57.698;11.986;2023-10-13T09:01:13;12.50;;;2.97;;
14817;SDS011;7500;57.698;11.986;2023-10-13T09:03:59;13.07;;;2.97;;
14817;SDS011;7500;57.698;11.986;2023-10-13T09:06:46;10.97;;;2.80;;
14817;SDS011;7500;57.698;11.986;2023-10-13T09:09:23;16.03;;;2.83;;
14817;SDS011;7500;57.698;11.986;2023-10-13T09:11:59;10.03;;;2.70;;
14817;SDS011;7500;57.698;11.986;2023-10-13T09:14:34;13.90;;;3.00;;
14817;SDS011;7500;57.698;11.986;2023-10-13T09:17:03;9.97;;;2.43;;
14817;SDS011;7500;57.698;11.986;2023-10-13T09:19:59;16.40;;;3.17;;
14817;SDS011;7500;57.698;11.986;2023-10-13T09:22:36;9.93;;;2.80;;
14817;SDS011;7500;57.698;11.986;2023-10-13T09:25:03;16.50;;;3.33;;
14817;SDS011;7500;57.698;11.986;2023-10-13T09:27:30;16.37;;;3.30;;
14817;SDS011;7500;57.698;11.986;2023-10-13T09:29:57;10.93;;;2.83;;
14817;SDS011;7500;57.698;11.986;2023-10-13T09:32:27;12.60;;;3.10;;
14817;SDS011;7500;57.698;11.986;2023-10-13T09:34:59;13.57;;;2.77;;
14817;SDS011;7500;57.698;11.986;2023-10-13T09:37:25;10.17;;;2.77;;
14817;SDS011;7500;57.698;11.986;2023-10-13T09:39:53;11.53;;;2.67;;
14817;SDS011;7500;57.698;11.986;2023-10-13T09:42:30;10.10;;;2.80;;
14817;SDS011;7500;57.698;11.986;2023-10-13T09:44:55;16.77;;;2.87;;
14817;SDS011;7500;57.698;11.986;2023-10-13T09:47:24;10.60;;;2.63;;
14817;SDS011;7500;57.698;11.986;2023-10-13T09:49:59;10.57;;;2.40;;
14817;SDS011;7500;57.698;11.986;2023-10-13T09:52:30;14.40;;;3.00;;
14817;SDS011;7500;57.698;11.986;2023-10-13T09:55:03;14.97;;;3.00;;
14817;SDS011;7500;57.698;11.986;2023-10-13T09:57:34;16.40;;;3.00;;
14817;SDS011;7500;57.698;11.986;2023-10-13T10:00:10;11.57;;;2.60;;
14817;SDS011;7500;57.698;11.986;2023-10-13T10:02:55;12.37;;;3.07;;
14817;SDS011;7500;57.698;11.986;2023-10-13T10:05:28;12.83;;;2.67;;
14817;SDS011;7500;57.698;11.986;2023-10-13T10:07:59;10.13;;;2.30;;
14817;SDS011;7500;57.698;11.986;2023-10-13T10:10:29;12.70;;;3.83;;
14817;SDS011;7500;57.698;11.986;2023-10-13T10:13:05;9.40;;;2.20;;
14817;SDS011;7500;57.698;11.986;2023-10-13T10:15:40;13.90;;;2.47;;
14817;SDS011;7500;57.698;11.986;2023-10-13T10:18:17;9.73;;;2.20;;
14817;SDS011;7500;57.698;11.986;2023-10-13T10:20:46;10.87;;;2.50;;
14817;SDS011;7500;57.698;11.986;2023-10-13T10:23:23;8.27;;;2.63;;
14817;SDS011;7500;57.698;11.986;2023-10-13T10:25:49;10.07;;;2.50;;
14817;SDS011;7500;57.698;11.986;2023-10-13T10:28:16;9.23;;;2.40;;
14817;SDS011;7500;57.698;11.986;2023-10-13T10:30:45;14.10;;;2.13;;
14817;SDS011;7500;57.698;11.986;2023-10-13T10:33:11;18.77;;;3.23;;
14817;SDS011;7500;57.698;11.986;2023-10-13T10:35:39;13.33;;;2.90;;
14817;SDS011;7500;57.698;11.986;2023-10-13T10:38:09;13.03;;;2.83;;
14817;SDS011;7500;57.698;11.986;2023-10-13T10:40:49;10.63;;;2.53;;
14817;SDS011;7500;57.698;11.986;2023-10-13T10:43:18;12.63;;;2.80;;
14817;SDS011;7500;57.698;11.986;2023-10-13T10:45:46;9.43;;;2.30;;
14817;SDS011;7500;57.698;11.986;2023-10-13T10:48:14;8.40;;;2.60;;
14817;SDS011;7500;57.698;11.986;2023-10-13T10:50:43;10.90;;;2.50;;
14817;SDS011;7500;57.698;11.986;2023-10-13T10:53:12;11.10;;;2.60;;
14817;SDS011;7500;57.698;11.986;2023-10-13T10:55:38;12.97;;;2.83;;
14817;SDS011;7500;57.698;11.986;2023-10-13T10:58:05;9.23;;;2.57;;
14817;SDS011;7500;57.698;11.986;2023-10-13T11:00:32;10.90;;;2.43;;
14817;SDS011;7500;57.698;11.986;2023-10-13T11:03:11;10.47;;;2.50;;
14817;SDS011;7500;57.698;11.986;2023-10-13T11:05:44;9.23;;;2.80;;
14817;SDS011;7500;57.698;11.986;2023-10-13T11:08:21;12.27;;;2.40;;
14817;SDS011;7500;57.698;11.986;2023-10-13T11:10:56;9.23;;;3.00;;
14817;SDS011;7500;57.698;11.986;2023-10-13T11:13:23;11.37;;;2.67;;
14817;SDS011;7500;57.698;11.986;2023-10-13T11:15:55;11.37;;;3.00;;
14817;SDS011;7500;57.698;11.986;2023-10-13T11:18:30;9.33;;;2.33;;
14817;SDS011;7500;57.698;11.986;2023-10-13T11:21:02;14.20;;;3.23;;
14817;SDS011;7500;57.698;11.986;2023-10-13T11:23:33;10.83;;;2.47;;
14817;SDS011;7500;57.698;11.986;2023-10-13T11:26:02;10.10;;;3.00;;
14817;SDS011;7500;57.698;11.986;2023-10-13T11:28:28;11.97;;;2.43;;
14817;SDS011;7500;57.698;11.986;2023-10-13T11:30:57;12.03;;;2.40;;
14817;SDS011;7500;57.698;11.986;2023-10-13T11:33:25;12.23;;;2.70;;
14817;SDS011;7500;57.698;11.986;2023-10-13T11:35:53;10.27;;;2.23;;
14817;SDS011;7500;57.698;11.986;2023-10-13T11:38:23;12.53;;;2.73;;
14817;SDS011;7500;57.698;11.986;2023-10-13T11:40:57;9.93;;;2.40;;
14817;SDS011;7500;57.698;11.986;2023-10-13T11:43:39;9.10;;;2.40;;
14817;SDS011;7500;57.698;11.986;2023-10-13T11:46:18;8.33;;;2.33;;
14817;SDS011;7500;57.698;11.986;2023-10-13T11:49:05;10.47;;;2.50;;
14817;SDS011;7500;57.698;11.986;2023-10-13T11:51:42;9.30;;;2.40;;
14817;SDS011;7500;57.698;11.986;2023-10-13T11:54:10;6.53;;;2.10;;
14817;SDS011;7500;57.698;11.986;2023-10-13T11:56:38;12.30;;;3.07;;
14817;SDS011;7500;57.698;11.986;2023-10-13T11:59:04;9.30;;;2.63;;
14817;SDS011;7500;57.698;11.986;2023-10-13T12:01:31;14.10;;;3.17;;
14817;SDS011;7500;57.698;11.986;2023-10-13T12:04:11;11.60;;;2.93;;
14817;SDS011;7500;57.698;11.986;2023-10-13T12:06:57;10.37;;;2.57;;
14817;SDS011;7500;57.698;11.986;2023-10-13T12:09:39;9.80;;;2.60;;
14817;SDS011;7500;57.698;11.986;2023-10-13T12:12:18;12.67;;;3.20;;
14817;SDS011;7500;57.698;11.986;2023-10-13T12:14:45;13.83;;;2.70;;
14817;SDS011;7500;57.698;11.986;2023-10-13T12:17:20;11.47;;;2.70;;
14817;SDS011;7500;57.698;11.986;2023-10-13T12:19:51;9.90;;;2.63;;
14817;SDS011;7500;57.698;11.986;2023-10-13T12:22:17;7.80;;;2.23;;
14817;SDS011;7500;57.698;11.986;2023-10-13T12:24:52;9.70;;;2.20;;
14817;SDS011;7500;57.698;11.986;2023-10-13T12:27:21;10.77;;;1.83;;
14817;SDS011;7500;57.698;11.986;2023-10-13T12:29:52;5.60;;;2.00;;
14817;SDS011;7500;57.698;11.986;2023-10-13T12:32:21;5.57;;;2.03;;
14817;SDS011;7500;57.698;11.986;2023-10-13T12:34:50;6.30;;;1.73;;
14817;SDS011;7500;57.698;11.986;2023-10-13T12:37:26;11.10;;;2.03;;
14817;SDS011;7500;57.698;11.986;2023-10-13T12:40:16;5.87;;;1.60;;
14817;SDS011;7500;57.698;11.986;2023-10-13T12:43:01;13.37;;;2.40;;
14817;SDS011;7500;57.698;11.986;2023-10-13T12:45:46;9.63;;;2.47;;
14817;SDS011;7500;57.698;11.986;2023-10-13T12:48:30;7.20;;;2.00;;
14817;SDS011;7500;57.698;11.986;2023-10-13T12:51:14;4.40;;;1.50;;
14817;SDS011;7500;57.698;11.986;2023-10-13T12:54:05;9.83;;;2.57;;
14817;SDS011;7500;57.698;11.986;2023-10-13T12:56:39;6.63;;;2.70;;
14817;SDS011;7500;57.698;11.986;2023-10-13T12:59:08;4.73;;;1.57;;
14817;SDS011;7500;57.698;11.986;2023-10-13T13:01:35;4.00;;;1.53;;
14817;SDS011;7500;57.698;11.986;2023-10-13T13:04:07;5.77;;;1.90;;
14817;SDS011;7500;57.698;11.986;2023-10-13T13:06:37;4.17;;;1.60;;
14817;SDS011;7500;57.698;11.986;2023-10-13T13:09:05;4.17;;;1.50;;
14817;SDS011;7500;57.698;11.986;2023-10-13T13:11:34;13.53;;;2.47;;
14817;SDS011;7500;57.698;11.986;2023-10-13T13:14:04;7.47;;;2.23;;
14817;SDS011;7500;57.698;11.986;2023-10-13T13:16:34;12.30;;;2.23;;
14817;SDS011;7500;57.698;11.986;2023-10-13T13:19:01;6.10;;;1.87;;
14817;SDS011;7500;57.698;11.986;2023-10-13T13:21:35;3.93;;;2.03;;
14817;SDS011;7500;57.698;11.986;2023-10-13T13:24:01;3.60;;;2.17;;
14817;SDS011;7500;57.698;11.986;2023-10-13T13:26:30;2.37;;;1.70;;
14817;SDS011;7500;57.698;11.986;2023-10-13T13:28:57;6.07;;;2.07;;
14817;SDS011;7500;57.698;11.986;2023-10-13T13:31:24;2.57;;;1.60;;
14817;SDS011;7500;57.698;11.986;2023-10-13T13:33:55;4.80;;;2.70;;
14817;SDS011;7500;57.698;11.986;2023-10-13T13:36:22;4.33;;;1.80;;
14817;SDS011;7500;57.698;11.986;2023-10-13T13:38:49;3.80;;;1.67;;
14817;SDS011;7500;57.698;11.986;2023-10-13T13:41:17;4.73;;;2.10;;
14817;SDS011;7500;57.698;11.986;2023-10-13T13:43:43;4.43;;;2.57;;
14817;SDS011;7500;57.698;11.986;2023-10-13T13:46:22;2.80;;;1.90;;
14817;SDS011;7500;57.698;11.986;2023-10-13T13:48:52;2.60;;;1.50;;
14817;SDS011;7500;57.698;11.986;2023-10-13T13:51:25;2.37;;;1.10;;
14817;SDS011;7500;57.698;11.986;2023-10-13T13:53:53;2.83;;;1.20;;
14817;SDS011;7500;57.698;11.986;2023-10-13T13:56:19;2.17;;;1.40;;
14817;SDS011;7500;57.698;11.986;2023-10-13T13:58:46;2.23;;;1.30;;
14817;SDS011;7500;57.698;11.986;2023-10-13T14:01:13;4.17;;;2.30;;
14817;SDS011;7500;57.698;11.986;2023-10-13T14:03:40;3.40;;;1.87;;
14817;SDS011;7500;57.698;11.986;2023-10-13T14:06:11;1.67;;;1.00;;
14817;SDS011;7500;57.698;11.986;2023-10-13T14:08:45;2.20;;;1.00;;
14817;SDS011;7500;57.698;11.986;2023-10-13T14:11:14;3.37;;;1.30;;
14817;SDS011;7500;57.698;11.986;2023-10-13T14:13:47;2.90;;;1.50;;
14817;SDS011;7500;57.698;11.986;2023-10-13T14:16:20;3.87;;;2.20;;
14817;SDS011;7500;57.698;11.986;2023-10-13T14:18:48;1.90;;;1.30;;
14817;SDS011;7500;57.698;11.986;2023-10-13T14:21:15;1.27;;;1.17;;
14817;SDS011;7500;57.698;11.986;2023-10-13T14:23:45;0.83;;;0.83;;
14817;SDS011;7500;57.698;11.986;2023-10-13T14:26:13;2.80;;;1.60;;
14817;SDS011;7500;57.698;11.986;2023-10-13T14:28:39;2.10;;;1.00;;
14817;SDS011;7500;57.698;11.986;2023-10-13T14:31:16;1.50;;;1.10;;
14817;SDS011;7500;57.698;11.986;2023-10-13T14:33:44;2.23;;;1.00;;
14817;SDS011;7500;57.698;11.986;2023-10-13T14:36:11;1.60;;;1.10;;
14817;SDS011;7500;57.698;11.986;2023-10-13T14:38:37;1.13;;;0.77;;
14817;SDS011;7500;57.698;11.986;2023-10-13T14:41:10;1.33;;;0.90;;
14817;SDS011;7500;57.698;11.986;2023-10-13T14:43:37;6.70;;;1.20;;
14817;SDS011;7500;57.698;11.986;2023-10-13T14:46:07;3.03;;;1.50;;
14817;SDS011;7500;57.698;11.986;2023-10-13T14:48:34;2.10;;;1.30;;
14817;SDS011;7500;57.698;11.986;2023-10-13T14:51:04;2.50;;;1.70;;
14817;SDS011;7500;57.698;11.986;2023-10-13T14:53:33;1.77;;;1.00;;
14817;SDS011;7500;57.698;11.986;2023-10-13T14:56:00;0.83;;;0.63;;
14817;SDS011;7500;57.698;11.986;2023-10-13T14:58:31;1.73;;;0.87;;
14817;SDS011;7500;57.698;11.986;2023-10-13T15:00:58;1.67;;;1.10;;
14817;SDS011;7500;57.698;11.986;2023-10-13T15:03:26;3.83;;;1.87;;
14817;SDS011;7500;57.698;11.986;2023-10-13T15:05:53;4.17;;;2.70;;
14817;SDS011;7500;57.698;11.986;2023-10-13T15:08:21;4.50;;;2.70;;
14817;SDS011;7500;57.698;11.986;2023-10-13T15:10:47;3.93;;;1.70;;
14817;SDS011;7500;57.698;11.986;2023-10-13T15:13:14;2.13;;;0.73;;